Time;durP1;ratioP1;P1;durP2;ratioP2;P2;SDS_P1;SDS_P2;PMS_P1;PMS_P2;Temp;Humidity;BMP_temperature;BMP_pressure;BME280_temperature;BME280_humidity;BME280_pressure;Samples;Min_cycle;Max_cycle;Signal;HPM_P1;HPM_P2
2021/12/04 00:01:16;;;;;;;1.80;1.07;;;7.60;99.90;;;;;;5011107;28;20208;-23
2021/12/04 00:03:44;;;;;;;1.40;0.83;;;7.60;99.90;;;;;;5029729;28;20670;-23
2021/12/04 00:06:33;;;;;;;0.80;0.80;;;7.60;99.90;;;;;;5030502;28;20219;-23
2021/12/04 00:09:04;;;;;;;0.90;0.90;;;7.60;99.90;;;;;;5008591;28;20205;-23
2021/12/04 00:11:34;;;;;;;2.40;1.60;;;7.60;99.90;;;;;;5010652;28;20603;-23
2021/12/04 00:14:01;;;;;;;1.33;1.13;;;7.60;99.90;;;;;;5009871;28;20383;-23
2021/12/04 00:16:31;;;;;;;0.90;0.90;;;7.60;99.90;;;;;;5011120;28;20229;-23
2021/12/04 00:19:00;;;;;;;0.83;0.83;;;7.60;99.90;;;;;;5010901;28;20586;-23
2021/12/04 00:21:27;;;;;;;1.63;1.20;;;7.60;99.90;;;;;;5008772;28;20672;-23
2021/12/04 00:23:55;;;;;;;1.47;1.30;;;7.60;99.90;;;;;;5008374;28;20205;-24
2021/12/04 00:26:27;;;;;;;1.00;0.90;;;7.60;99.90;;;;;;5010508;28;20789;-23
2021/12/04 00:28:56;;;;;;;1.07;0.90;;;7.60;99.90;;;;;;5009738;28;20198;-24
2021/12/04 00:31:27;;;;;;;1.00;0.90;;;7.60;99.90;;;;;;5008848;28;20197;-23
2021/12/04 00:33:59;;;;;;;1.23;1.00;;;7.60;99.90;;;;;;5027507;28;20291;-24
2021/12/04 00:50:05;;;;;;;2.47;1.40;;;7.70;99.90;;;;;;5025163;28;20237;-24
2021/12/04 00:52:32;;;;;;;1.20;1.10;;;7.60;99.90;;;;;;5028618;28;20593;-24
2021/12/04 00:55:01;;;;;;;1.27;1.10;;;7.70;99.90;;;;;;5029594;28;20201;-24
2021/12/04 00:57:31;;;;;;;2.40;1.17;;;7.60;99.90;;;;;;5027237;28;20219;-24
2021/12/04 01:00:02;;;;;;;1.60;1.20;;;7.70;99.90;;;;;;5029552;28;20291;-24
2021/12/04 01:02:29;;;;;;;2.07;1.27;;;7.70;99.90;;;;;;5011323;28;20304;-24
2021/12/04 01:05:00;;;;;;;1.53;1.20;;;7.70;99.90;;;;;;5029370;28;20192;-24
2021/12/04 01:07:33;;;;;;;1.80;1.40;;;7.60;99.90;;;;;;5015015;28;20699;-24
2021/12/04 01:10:08;;;;;;;1.97;1.30;;;7.70;99.90;;;;;;5015855;28;20228;-25
2021/12/04 01:12:36;;;;;;;1.30;1.20;;;7.70;99.90;;;;;;5028271;28;20220;-26
2021/12/04 01:15:07;;;;;;;1.67;1.20;;;7.70;99.90;;;;;;5027760;28;20679;-25
2021/12/04 01:17:39;;;;;;;1.40;1.30;;;7.70;99.90;;;;;;5028774;28;20698;-25
2021/12/04 01:20:11;;;;;;;1.50;1.40;;;7.70;99.90;;;;;;5029296;28;20209;-25
2021/12/04 01:22:39;;;;;;;2.00;1.50;;;7.70;99.90;;;;;;5028521;28;20662;-25
2021/12/04 01:25:07;;;;;;;1.77;1.20;;;7.70;99.90;;;;;;5028586;28;20322;-25
2021/12/04 01:27:37;;;;;;;2.27;1.30;;;7.70;99.90;;;;;;5028053;28;20706;-25
2021/12/04 01:30:06;;;;;;;1.30;1.20;;;7.70;99.90;;;;;;5028939;28;20208;-25
2021/12/04 01:32:33;;;;;;;1.27;1.03;;;7.70;99.90;;;;;;5027979;28;20220;-25
2021/12/04 01:35:04;;;;;;;1.70;1.10;;;7.70;99.90;;;;;;5028527;28;20304;-25
2021/12/04 01:37:31;;;;;;;1.20;0.87;;;7.70;99.90;;;;;;5028427;28;20193;-25
2021/12/04 01:40:01;;;;;;;1.60;1.10;;;7.70;99.90;;;;;;5009244;28;20300;-25
2021/12/04 01:42:32;;;;;;;1.60;1.10;;;7.70;99.90;;;;;;5008031;28;20209;-25
2021/12/04 01:44:59;;;;;;;1.50;1.23;;;7.70;99.90;;;;;;5009230;28;20209;-25
2021/12/04 01:47:26;;;;;;;1.27;1.00;;;7.70;99.90;;;;;;5008740;28;20475;-25
2021/12/04 01:49:58;;;;;;;1.43;1.13;;;7.70;99.90;;;;;;5017124;28;20340;-25
2021/12/04 01:52:27;;;;;;;1.13;1.03;;;7.70;99.90;;;;;;5027930;28;20217;-25
2021/12/04 01:54:57;;;;;;;2.17;0.90;;;7.70;99.90;;;;;;5028391;28;20223;-26
2021/12/04 01:57:25;;;;;;;1.10;1.10;;;7.70;99.90;;;;;;5022320;28;20786;-25
2021/12/04 02:00:09;;;;;;;0.80;0.80;;;7.70;99.90;;;;;;5027896;28;20201;-25
2021/12/04 02:02:38;;;;;;;1.23;1.13;;;7.70;99.90;;;;;;5027590;28;20220;-25
2021/12/04 02:05:07;;;;;;;1.30;1.00;;;7.70;99.90;;;;;;5026900;28;20660;-25
2021/12/04 02:07:34;;;;;;;1.20;1.10;;;7.70;99.90;;;;;;5027181;28;20229;-25
2021/12/04 02:10:09;;;;;;;0.87;0.87;;;7.70;99.90;;;;;;5028106;28;20236;-25
2021/12/04 02:12:36;;;;;;;1.53;1.10;;;7.70;99.90;;;;;;5027099;28;20316;-25
2021/12/04 02:15:10;;;;;;;1.30;1.20;;;7.70;99.90;;;;;;5025378;28;20205;-25
2021/12/04 02:17:40;;;;;;;1.27;1.07;;;7.70;99.90;;;;;;5026446;28;20637;-25
2021/12/04 02:20:15;;;;;;;1.30;1.17;;;7.70;99.90;;;;;;5027800;28;20731;-25
2021/12/04 02:22:46;;;;;;;1.30;1.20;;;7.70;99.90;;;;;;5027437;28;20228;-24
2021/12/04 02:25:14;;;;;;;1.67;1.20;;;7.70;99.90;;;;;;5026565;28;20515;-24
2021/12/04 02:27:43;;;;;;;1.20;1.00;;;7.70;99.90;;;;;;5038373;28;20667;-23
2021/12/04 02:30:13;;;;;;;1.13;1.03;;;7.70;99.90;;;;;;5025818;28;20601;-24
2021/12/04 02:32:43;;;;;;;1.17;1.00;;;7.70;99.90;;;;;;5012084;28;20719;-23
2021/12/04 02:35:12;;;;;;;1.00;0.90;;;7.70;99.90;;;;;;5023277;28;20594;-23
2021/12/04 02:37:40;;;;;;;2.10;1.10;;;7.70;99.90;;;;;;5007619;28;20727;-24
2021/12/04 02:40:14;;;;;;;1.17;1.00;;;7.70;99.90;;;;;;5008458;28;20212;-24
2021/12/04 02:42:45;;;;;;;2.30;1.23;;;7.70;99.90;;;;;;5007235;28;20293;-23
2021/12/04 02:45:15;;;;;;;1.10;1.00;;;7.70;99.90;;;;;;5007909;28;20295;-24
2021/12/04 02:47:43;;;;;;;1.33;1.23;;;7.70;99.90;;;;;;5007812;28;20201;-24
2021/12/04 02:50:12;;;;;;;1.20;1.10;;;7.70;99.90;;;;;;5019031;28;20247;-24
2021/12/04 02:52:40;;;;;;;1.00;1.00;;;7.70;99.90;;;;;;5027127;28;20220;-23
2021/12/04 02:55:10;;;;;;;1.20;1.10;;;7.70;99.90;;;;;;5027703;28;20628;-24
2021/12/04 02:57:43;;;;;;;1.50;1.27;;;7.70;99.90;;;;;;5026575;28;20328;-24
2021/12/04 03:00:23;;;;;;;1.33;1.23;;;7.70;99.90;;;;;;5026233;28;20201;-23
2021/12/04 03:02:55;;;;;;;1.20;1.10;;;7.70;99.90;;;;;;5027539;28;20315;-24
2021/12/04 03:05:27;;;;;;;1.10;1.00;;;7.70;99.90;;;;;;5022490;28;20216;-23
2021/12/04 03:07:57;;;;;;;1.37;1.10;;;7.70;99.90;;;;;;5005555;28;20312;-23
2021/12/04 03:10:26;;;;;;;1.20;1.10;;;7.80;99.90;;;;;;5007845;28;20225;-24
2021/12/04 03:12:53;;;;;;;1.20;1.10;;;7.80;99.90;;;;;;5024704;28;20732;-23
2021/12/04 03:15:23;;;;;;;2.80;1.00;;;7.70;99.90;;;;;;5027530;28;20678;-24
2021/12/04 03:17:51;;;;;;;1.50;1.40;;;7.80;99.90;;;;;;5027008;28;20264;-23
2021/12/04 03:20:21;;;;;;;1.20;1.10;;;7.80;99.90;;;;;;5028393;28;20597;-24
2021/12/04 03:22:58;;;;;;;0.87;0.87;;;7.80;99.90;;;;;;5025972;28;20201;-24
2021/12/04 03:25:27;;;;;;;1.40;1.30;;;7.80;99.90;;;;;;5027414;28;20288;-23
2021/12/04 03:27:54;;;;;;;1.40;1.30;;;7.80;99.90;;;;;;5026740;28;20594;-23
2021/12/04 03:30:35;;;;;;;1.30;1.20;;;7.80;99.90;;;;;;5027478;28;20221;-23
2021/12/04 03:41:07;;;;;;;2.37;1.30;;;7.70;99.90;;;;;;5025630;28;20224;-24
2021/12/04 03:43:36;;;;;;;1.57;1.30;;;7.70;99.90;;;;;;5026204;28;20211;-24
2021/12/04 03:46:09;;;;;;;1.23;1.13;;;7.70;99.90;;;;;;5027506;28;20209;-23
2021/12/04 03:51:07;;;;;;;2.03;0.90;;;7.70;99.90;;;;;;5014737;28;20291;-23
2021/12/04 03:53:36;;;;;;;1.77;1.00;;;7.70;99.90;;;;;;5026561;28;20225;-23
2021/12/04 03:56:05;;;;;;;1.20;1.10;;;7.70;99.90;;;;;;5024330;28;20581;-24
2021/12/04 03:58:32;;;;;;;1.90;1.10;;;7.70;99.90;;;;;;5009391;28;20683;-23
2021/12/04 04:01:00;;;;;;;1.30;1.03;;;7.70;99.90;;;;;;5011069;28;20208;-24
2021/12/04 04:03:29;;;;;;;1.00;0.80;;;7.70;99.90;;;;;;5010842;28;20359;-24
2021/12/04 04:05:57;;;;;;;1.20;1.10;;;7.70;99.90;;;;;;5021161;28;20200;-24
2021/12/04 04:08:24;;;;;;;1.20;1.10;;;7.70;99.90;;;;;;5028411;28;20582;-23
2021/12/04 04:10:53;;;;;;;1.30;1.20;;;7.70;99.90;;;;;;5029260;28;20236;-23
2021/12/04 04:13:23;;;;;;;1.23;1.13;;;7.70;99.90;;;;;;5024319;28;20572;-23
2021/12/04 04:15:51;;;;;;;1.67;1.10;;;7.70;99.90;;;;;;5011132;28;20318;-24
2021/12/04 04:18:18;;;;;;;1.10;1.00;;;7.70;99.90;;;;;;5008892;28;20244;-23
2021/12/04 04:20:45;;;;;;;1.43;1.23;;;7.70;99.90;;;;;;5010773;28;20285;-23
2021/12/04 04:23:15;;;;;;;1.27;1.00;;;7.70;99.90;;;;;;5009976;28;20548;-24
2021/12/04 04:25:43;;;;;;;1.30;1.00;;;7.70;99.90;;;;;;5009195;28;20217;-24
2021/12/04 04:28:13;;;;;;;1.43;1.33;;;7.70;99.90;;;;;;5009305;28;20221;-24
2021/12/04 04:30:40;;;;;;;1.40;1.30;;;7.70;99.90;;;;;;5011301;28;20224;-24
2021/12/04 04:33:10;;;;;;;1.40;1.30;;;7.70;99.90;;;;;;5010265;28;20217;-23
2021/12/04 04:35:41;;;;;;;1.83;1.33;;;7.70;99.90;;;;;;5010450;28;20213;-24
2021/12/04 04:38:28;;;;;;;1.50;1.40;;;7.70;99.90;;;;;;5008393;28;20284;-23
2021/12/04 05:00:30;;;;;;;1.50;1.40;;;7.70;99.90;;;;;;5029729;28;20683;-24
2021/12/04 05:11:22;;;;;;;2.90;2.60;;;7.60;99.90;;;;;;5009644;28;20588;-24
2021/12/04 05:13:51;;;;;;;4.20;2.70;;;7.60;99.90;;;;;;5008542;28;20229;-24
2021/12/04 05:16:21;;;;;;;3.20;2.90;;;7.60;99.90;;;;;;5019918;28;20228;-24
2021/12/04 05:18:55;;;;;;;3.27;2.97;;;7.60;99.90;;;;;;5027143;28;20264;-24
2021/12/04 05:21:23;;;;;;;3.40;3.10;;;7.60;99.90;;;;;;5023995;28;20202;-24
2021/12/04 05:23:54;;;;;;;4.20;3.30;;;7.60;99.90;;;;;;5008700;28;20209;-24
2021/12/04 05:26:28;;;;;;;3.43;3.13;;;7.70;99.90;;;;;;5009463;28;20201;-24
2021/12/04 05:29:01;;;;;;;4.20;3.50;;;7.60;99.90;;;;;;5008534;28;20213;-24
2021/12/04 05:31:28;;;;;;;3.80;3.50;;;7.70;99.90;;;;;;5009356;28;20272;-24
2021/12/04 05:33:55;;;;;;;3.90;3.47;;;7.70;99.90;;;;;;5009234;28;20642;-24
2021/12/04 05:36:24;;;;;;;3.40;3.10;;;7.60;99.90;;;;;;5009363;28;20193;-24
2021/12/04 05:38:54;;;;;;;3.60;3.20;;;7.70;99.90;;;;;;5009121;28;20202;-24
2021/12/04 05:41:22;;;;;;;3.63;3.10;;;7.70;99.90;;;;;;5024033;28;20643;-24
2021/12/04 05:43:49;;;;;;;3.83;3.50;;;7.70;99.90;;;;;;5008227;28;20202;-24
2021/12/04 05:46:18;;;;;;;4.23;3.17;;;7.70;99.90;;;;;;5009181;28;20244;-24
2021/12/04 05:48:58;;;;;;;4.03;3.07;;;7.70;99.90;;;;;;5009818;28;20201;-26
2021/12/04 05:56:52;;;;;;;3.50;3.20;;;7.70;99.90;;;;;;5027578;28;20295;-26
2021/12/04 05:59:19;;;;;;;4.00;3.60;;;7.70;99.90;;;;;;5019267;28;20241;-26
2021/12/04 06:01:49;;;;;;;4.23;3.60;;;7.70;99.90;;;;;;5013109;28;20306;-26
2021/12/04 06:04:17;;;;;;;4.30;3.40;;;7.70;99.90;;;;;;5016658;28;20225;-26
2021/12/04 06:06:46;;;;;;;3.50;3.20;;;7.70;99.90;;;;;;5015136;28;20494;-26
2021/12/04 06:09:14;;;;;;;3.43;3.13;;;7.70;99.90;;;;;;5013911;28;20554;-26
2021/12/04 06:11:41;;;;;;;3.73;3.33;;;7.70;99.90;;;;;;5013669;28;20237;-26
2021/12/04 06:14:08;;;;;;;4.93;3.37;;;7.70;99.90;;;;;;5010295;28;20228;-26
2021/12/04 06:16:38;;;;;;;4.07;3.67;;;7.70;99.90;;;;;;5030508;28;20216;-26
2021/12/04 06:19:12;;;;;;;3.27;2.97;;;7.70;99.90;;;;;;5027895;28;20201;-26
2021/12/04 06:24:28;;;;;;;3.50;3.20;;;7.80;99.90;;;;;;5027787;28;20697;-25
2021/12/04 06:26:56;;;;;;;3.10;2.80;;;7.80;99.90;;;;;;5027308;28;20304;-25
2021/12/04 06:29:24;;;;;;;3.40;3.10;;;7.80;99.90;;;;;;5022336;28;20220;-25
2021/12/04 06:31:55;;;;;;;3.47;2.97;;;7.80;99.90;;;;;;5022165;28;20224;-25
2021/12/04 06:34:24;;;;;;;3.33;3.03;;;7.80;99.90;;;;;;5027694;28;20221;-25
2021/12/04 06:36:51;;;;;;;3.50;3.20;;;7.80;99.90;;;;;;5026075;28;20201;-25
2021/12/04 06:39:19;;;;;;;6.07;3.27;;;7.80;99.90;;;;;;5027774;28;20208;-25
2021/12/04 06:41:48;;;;;;;4.57;3.50;;;7.80;99.90;;;;;;5026448;28;20288;-25
2021/12/04 06:44:15;;;;;;;3.70;3.20;;;7.80;99.90;;;;;;5026009;28;20463;-25
2021/12/04 06:46:42;;;;;;;3.33;3.03;;;7.80;99.90;;;;;;5024621;28;20193;-25
2021/12/04 06:49:23;;;;;;;3.37;2.90;;;7.80;99.90;;;;;;5025150;28;20744;-26
2021/12/04 06:51:55;;;;;;;3.27;2.97;;;7.80;99.90;;;;;;5023813;28;20307;-25
2021/12/04 06:54:26;;;;;;;3.20;2.90;;;7.80;99.90;;;;;;5021041;28;20665;-25
2021/12/04 06:56:53;;;;;;;3.07;2.83;;;7.80;99.90;;;;;;5008698;28;20295;-25
2021/12/04 06:59:29;;;;;;;3.30;3.00;;;7.80;99.90;;;;;;5007802;28;20193;-25
2021/12/04 07:01:57;;;;;;;3.10;2.80;;;7.80;99.90;;;;;;5008745;28;20221;-25
2021/12/04 07:04:31;;;;;;;2.80;2.60;;;7.80;99.90;;;;;;5018831;28;20691;-25
2021/12/04 07:06:58;;;;;;;4.13;2.87;;;7.80;99.90;;;;;;5015376;28;20215;-25
2021/12/04 07:09:25;;;;;;;2.70;2.50;;;7.80;99.90;;;;;;5015138;28;20214;-25
2021/12/04 07:11:53;;;;;;;3.43;2.47;;;7.80;99.90;;;;;;5014485;28;20216;-25
2021/12/04 07:14:20;;;;;;;3.07;2.77;;;7.80;99.90;;;;;;5012354;28;20241;-25
2021/12/04 07:16:47;;;;;;;3.57;3.23;;;7.80;99.90;;;;;;5007979;28;20223;-25
2021/12/04 07:19:17;;;;;;;3.23;2.93;;;7.80;99.90;;;;;;5008100;28;20216;-25
2021/12/04 07:21:46;;;;;;;3.30;2.80;;;7.80;99.90;;;;;;5012548;28;20197;-25
2021/12/04 07:24:15;;;;;;;3.50;3.00;;;7.80;99.90;;;;;;5015948;28;20252;-26
2021/12/04 07:26:42;;;;;;;3.33;2.70;;;7.80;99.90;;;;;;5022728;28;20213;-25
2021/12/04 07:29:10;;;;;;;3.10;2.77;;;7.80;99.90;;;;;;5008750;28;20224;-25
2021/12/04 07:31:40;;;;;;;2.40;2.20;;;7.80;99.90;;;;;;5007940;28;20572;-25
2021/12/04 07:34:09;;;;;;;3.90;2.50;;;7.80;99.90;;;;;;5010704;28;20224;-25
2021/12/04 07:36:36;;;;;;;2.90;2.60;;;7.80;99.90;;;;;;5011797;28;20312;-25
2021/12/04 07:39:08;;;;;;;3.57;2.47;;;7.80;99.90;;;;;;5017538;28;20205;-25
2021/12/04 07:41:42;;;;;;;4.27;2.33;;;7.80;99.90;;;;;;5012386;28;20201;-25
2021/12/04 07:44:11;;;;;;;3.30;2.20;;;7.80;99.90;;;;;;5013424;28;20567;-25
2021/12/04 07:46:40;;;;;;;2.93;1.90;;;7.80;99.90;;;;;;5011957;28;20214;-25
2021/12/04 07:49:07;;;;;;;2.60;2.30;;;7.80;99.90;;;;;;5029732;28;20556;-25
2021/12/04 07:51:35;;;;;;;2.20;2.00;;;7.80;99.90;;;;;;5030182;28;20245;-25
2021/12/04 07:54:03;;;;;;;2.40;2.00;;;7.80;99.90;;;;;;5027821;28;20707;-25
2021/12/04 07:56:31;;;;;;;1.97;1.77;;;7.80;99.90;;;;;;5013753;28;20314;-25
2021/12/04 07:58:59;;;;;;;1.90;1.77;;;7.80;99.90;;;;;;5025736;28;20651;-25
2021/12/04 08:01:29;;;;;;;1.97;1.80;;;7.80;99.90;;;;;;5024319;28;20606;-26
2021/12/04 08:03:56;;;;;;;2.30;1.83;;;7.80;99.90;;;;;;5010868;28;20648;-26
2021/12/04 08:06:23;;;;;;;2.50;2.00;;;7.80;99.90;;;;;;5010857;28;20296;-25
2021/12/04 08:08:53;;;;;;;2.63;2.13;;;7.90;99.90;;;;;;5015801;28;20237;-26
2021/12/04 08:11:20;;;;;;;2.30;2.07;;;7.90;99.90;;;;;;5018033;28;20585;-26
2021/12/04 08:13:48;;;;;;;2.53;2.33;;;7.90;99.90;;;;;;5009788;28;20232;-26
2021/12/04 08:16:15;;;;;;;2.10;1.90;;;7.90;99.90;;;;;;5017206;28;20212;-25
2021/12/04 08:18:42;;;;;;;3.13;2.23;;;7.90;99.90;;;;;;5016989;28;20565;-26
2021/12/04 08:21:15;;;;;;;2.43;2.07;;;7.90;99.90;;;;;;5029452;28;20620;-26
2021/12/04 08:23:44;;;;;;;2.27;2.07;;;7.90;99.90;;;;;;5021592;28;20240;-26
2021/12/04 08:26:17;;;;;;;2.87;2.33;;;8.00;99.90;;;;;;5015512;28;20692;-26
2021/12/04 08:28:46;;;;;;;2.37;2.17;;;8.00;99.90;;;;;;5017972;28;20308;-26
2021/12/04 08:31:16;;;;;;;2.60;1.90;;;8.00;99.90;;;;;;5009346;28;20221;-26
2021/12/04 08:33:44;;;;;;;2.73;2.43;;;8.00;99.90;;;;;;5010288;28;20375;-25
2021/12/04 08:36:11;;;;;;;2.63;2.37;;;8.00;99.90;;;;;;5012720;28;20198;-26
2021/12/04 08:38:46;;;;;;;2.60;2.40;;;8.00;99.90;;;;;;5025917;28;20212;-26
2021/12/04 08:41:15;;;;;;;2.37;2.10;;;8.10;99.90;;;;;;5016541;28;20193;-26
2021/12/04 08:43:44;;;;;;;3.53;2.37;;;8.00;99.90;;;;;;5028790;28;20355;-26
2021/12/04 08:46:13;;;;;;;3.40;2.27;;;8.10;99.90;;;;;;5014100;28;20313;-26
2021/12/04 08:48:41;;;;;;;2.40;2.17;;;8.10;99.90;;;;;;5012776;28;20206;-26
2021/12/04 08:51:11;;;;;;;2.43;2.23;;;8.10;99.90;;;;;;5009993;28;20273;-26
2021/12/04 08:53:38;;;;;;;3.97;1.90;;;8.10;99.90;;;;;;5009030;28;20198;-26
2021/12/04 08:56:05;;;;;;;7.53;3.00;;;8.10;99.90;;;;;;5014105;28;20205;-26
2021/12/04 08:58:35;;;;;;;3.90;2.47;;;8.20;99.90;;;;;;5024566;28;20839;-26
2021/12/04 09:01:10;;;;;;;4.67;2.60;;;8.20;99.90;;;;;;5021640;28;20667;-26
2021/12/04 09:03:47;;;;;;;3.07;2.17;;;8.20;99.90;;;;;;5012305;28;20206;-26
2021/12/04 09:06:18;;;;;;;3.23;2.53;;;8.30;99.90;;;;;;5009801;28;20288;-26
2021/12/04 09:08:46;;;;;;;2.40;2.20;;;8.30;99.90;;;;;;5011926;28;20201;-26
2021/12/04 09:11:19;;;;;;;2.50;2.30;;;8.40;99.90;;;;;;5027045;28;20209;-26
2021/12/04 09:13:50;;;;;;;2.73;2.40;;;8.40;99.90;;;;;;5019105;28;20288;-26
2021/12/04 09:16:19;;;;;;;3.40;2.33;;;8.40;99.90;;;;;;5023496;28;20783;-26
2021/12/04 09:18:47;;;;;;;3.67;2.57;;;8.40;99.90;;;;;;5023653;28;20208;-26
2021/12/04 09:21:14;;;;;;;2.87;2.57;;;8.40;99.90;;;;;;5008544;28;20198;-26
2021/12/04 09:23:48;;;;;;;2.73;2.47;;;8.50;99.90;;;;;;5027812;28;20197;-26
2021/12/04 09:34:56;;;;;;;2.70;2.50;;;8.40;99.90;;;;;;5018662;28;20320;-26
2021/12/04 10:35:19;;;;;;;4.70;2.90;;;8.70;99.90;;;;;;5013385;28;20670;-25
2021/12/04 10:37:54;;;;;;;3.30;3.00;;;8.70;99.90;;;;;;5019447;28;20212;-25
2021/12/04 10:40:24;;;;;;;3.27;2.97;;;8.70;99.90;;;;;;5035088;28;20193;-26
2021/12/04 10:42:56;;;;;;;3.77;3.47;;;8.70;99.90;;;;;;5010855;28;20197;-25
2021/12/04 10:45:39;;;;;;;3.77;3.40;;;8.70;99.90;;;;;;5012848;28;20240;-26
2021/12/04 10:48:11;;;;;;;3.73;3.37;;;8.70;99.90;;;;;;5013354;28;20792;-25
2021/12/04 10:50:50;;;;;;;7.87;3.30;;;8.70;99.90;;;;;;5021386;28;20244;-25
2021/12/04 10:53:23;;;;;;;4.07;3.67;;;8.70;99.90;;;;;;5022988;28;20204;-26
2021/12/04 10:56:11;;;;;;;4.80;3.00;;;8.70;99.90;;;;;;5029332;28;20343;-26
2021/12/04 11:43:04;;;;;;;5.53;3.90;;;8.70;99.90;;;;;;5018147;28;20339;-25
2021/12/04 11:46:41;;;;;;;5.40;4.57;;;8.70;99.90;;;;;;5019173;28;20359;-25
2021/12/04 11:48:39;;;;;;;5.70;4.53;;;8.70;99.90;;;;;;5023274;28;20307;-26
2021/12/04 11:51:22;;;;;;;6.67;5.03;;;8.70;99.90;;;;;;5016892;28;20702;-26
2021/12/04 11:53:51;;;;;;;7.03;4.93;;;8.70;99.90;;;;;;5013326;28;20243;-25
2021/12/04 11:56:26;;;;;;;7.33;4.90;;;8.70;99.90;;;;;;5009827;28;20230;-25
2021/12/04 11:58:54;;;;;;;9.07;5.30;;;8.80;99.90;;;;;;5009804;28;20196;-26
2021/12/04 12:01:31;;;;;;;6.83;4.30;;;8.70;99.90;;;;;;5009414;28;20264;-26
2021/12/04 12:04:08;;;;;;;6.40;3.93;;;8.80;99.90;;;;;;5010913;28;20201;-26
2021/12/04 12:06:42;;;;;;;6.67;3.70;;;8.80;99.90;;;;;;5011102;28;20221;-25
2021/12/04 12:09:19;;;;;;;3.83;3.00;;;8.80;99.90;;;;;;5013919;28;20564;-25
2021/12/04 12:12:03;;;;;;;3.83;2.60;;;8.80;99.90;;;;;;5019302;28;20652;-26
2021/12/04 12:14:38;;;;;;;4.50;3.03;;;8.80;99.90;;;;;;5009958;28;20216;-23
2021/12/04 12:17:07;;;;;;;5.93;2.90;;;8.80;99.90;;;;;;5021706;28;20200;-23
2021/12/04 12:19:40;;;;;;;5.43;2.70;;;8.80;99.90;;;;;;5018788;28;20292;-23
2021/12/04 12:22:19;;;;;;;5.10;2.70;;;8.80;99.90;;;;;;5013014;28;20219;-23
2021/12/04 12:27:51;;;;;;;2.40;2.07;;;8.80;99.90;;;;;;5020949;28;20205;-23
2021/12/04 12:36:13;;;;;;;4.53;2.93;;;8.80;99.90;;;;;;5030075;28;20593;-23
2021/12/04 12:38:53;;;;;;;4.13;2.93;;;8.80;99.90;;;;;;5028441;28;20233;-23
2021/12/04 12:41:35;;;;;;;4.30;3.10;;;8.80;99.90;;;;;;5029882;28;20570;-23
2021/12/04 12:44:14;;;;;;;3.43;2.83;;;8.80;99.90;;;;;;5018167;28;20209;-23
2021/12/04 12:46:43;;;;;;;3.93;2.97;;;8.80;99.90;;;;;;5008718;28;20197;-23
2021/12/04 12:49:19;;;;;;;4.20;2.90;;;8.80;99.90;;;;;;5013865;28;20205;-23
2021/12/04 12:52:09;;;;;;;5.10;3.27;;;8.70;99.90;;;;;;5009808;28;20271;-23
2021/12/04 12:55:00;;;;;;;5.43;3.13;;;8.80;99.90;;;;;;5009885;28;20686;-23
2021/12/04 12:57:31;;;;;;;3.47;3.00;;;8.80;99.90;;;;;;5009493;28;20202;-23
2021/12/04 13:11:57;;;;;;;3.93;3.03;;;8.70;99.90;;;;;;5022231;28;20679;-23
2021/12/04 13:14:31;;;;;;;3.67;3.13;;;8.70;99.90;;;;;;5026122;28;20196;-23
2021/12/04 13:17:15;;;;;;;4.20;3.43;;;8.70;99.90;;;;;;5009153;28;20218;-23
2021/12/04 13:19:50;;;;;;;3.10;2.80;;;8.80;99.90;;;;;;5016868;28;20221;-23
2021/12/04 13:22:26;;;;;;;4.47;3.57;;;8.80;99.90;;;;;;5015227;28;20267;-23
2021/12/04 13:24:58;;;;;;;4.13;3.23;;;8.80;99.90;;;;;;5008240;28;20208;-23
2021/12/04 13:30:12;;;;;;;5.60;3.60;;;8.80;99.90;;;;;;5021890;28;20701;-23
2021/12/04 13:32:42;;;;;;;5.10;3.70;;;8.80;99.90;;;;;;5015491;28;20212;-23
2021/12/04 13:35:10;;;;;;;6.47;3.40;;;8.80;99.90;;;;;;5020361;28;20233;-23
2021/12/04 13:37:39;;;;;;;4.70;3.40;;;8.80;99.90;;;;;;5011564;28;20279;-23
2021/12/04 13:40:13;;;;;;;4.20;3.57;;;8.80;99.90;;;;;;5023123;28;20201;-23
2021/12/04 13:42:43;;;;;;;5.10;3.70;;;8.80;99.90;;;;;;5019398;28;20201;-23
2021/12/04 13:45:15;;;;;;;6.93;3.60;;;8.80;99.90;;;;;;5007620;28;20309;-23
2021/12/04 13:47:43;;;;;;;4.53;3.53;;;8.80;99.90;;;;;;5023267;28;20203;-23
2021/12/04 13:53:02;;;;;;;5.53;3.63;;;8.80;99.90;;;;;;5026584;28;20220;-23
2021/12/04 13:55:31;;;;;;;5.43;3.83;;;8.80;99.90;;;;;;5028634;28;20587;-23
2021/12/04 13:57:58;;;;;;;6.13;3.70;;;8.80;99.90;;;;;;5020842;28;20597;-23
2021/12/04 14:00:27;;;;;;;4.47;3.27;;;8.80;99.90;;;;;;5008803;28;20298;-23
2021/12/04 14:02:57;;;;;;;6.63;3.87;;;8.80;99.90;;;;;;5025543;28;20308;-23
2021/12/04 14:05:27;;;;;;;5.30;3.30;;;8.80;99.90;;;;;;5028001;28;20585;-23
2021/12/04 14:08:02;;;;;;;6.40;3.37;;;8.80;99.90;;;;;;5023316;28;20216;-26
2021/12/04 14:10:41;;;;;;;7.37;3.93;;;8.80;99.90;;;;;;5017106;28;20236;-26
2021/12/04 14:13:11;;;;;;;6.57;3.87;;;8.80;99.90;;;;;;5012600;28;20244;-26
2021/12/04 14:15:44;;;;;;;9.57;3.87;;;8.80;99.90;;;;;;5019456;28;20579;-26
2021/12/04 14:18:16;;;;;;;7.87;3.73;;;8.80;99.90;;;;;;5027795;28;20733;-26
2021/12/04 14:20:48;;;;;;;7.47;3.70;;;8.80;99.90;;;;;;5011680;28;20569;-26
2021/12/04 14:23:18;;;;;;;6.87;3.40;;;8.90;99.90;;;;;;5028776;28;20208;-26
2021/12/04 14:25:51;;;;;;;4.97;3.10;;;8.90;99.90;;;;;;5046408;28;20715;-26
2021/12/04 14:28:30;;;;;;;7.53;2.93;;;8.90;99.90;;;;;;5012608;28;20209;-26
2021/12/04 14:30:57;;;;;;;3.27;2.80;;;8.90;99.90;;;;;;5011461;28;20215;-26
2021/12/04 14:33:26;;;;;;;5.53;3.13;;;8.90;99.90;;;;;;5019646;28;20203;-24
2021/12/04 14:35:55;;;;;;;7.60;3.60;;;8.90;99.90;;;;;;5017524;28;20221;-23
2021/12/04 14:38:30;;;;;;;5.07;2.73;;;8.90;99.90;;;;;;5010907;28;20202;-23
2021/12/04 14:41:04;;;;;;;6.53;2.97;;;8.90;99.90;;;;;;5006599;28;20244;-23
2021/12/04 14:43:36;;;;;;;4.20;3.17;;;8.90;99.90;;;;;;5007093;28;20197;-23
2021/12/04 14:46:07;;;;;;;4.53;3.57;;;8.90;99.90;;;;;;5008253;28;20317;-23
2021/12/04 14:48:41;;;;;;;5.10;3.20;;;8.90;99.90;;;;;;5017476;28;20204;-23
2021/12/04 14:51:14;;;;;;;7.57;3.87;;;8.90;99.90;;;;;;5026959;28;20239;-23
2021/12/04 14:53:50;;;;;;;10.53;3.67;;;8.90;99.90;;;;;;5011971;28;20218;-23
2021/12/04 14:56:22;;;;;;;6.77;3.20;;;8.90;99.90;;;;;;5011386;28;20232;-23
2021/12/04 14:58:52;;;;;;;8.47;3.90;;;8.90;99.90;;;;;;5013868;28;20197;-23
2021/12/04 15:01:23;;;;;;;7.17;2.93;;;8.90;99.90;;;;;;5011336;28;20209;-23
2021/12/04 15:03:55;;;;;;;5.07;2.67;;;8.90;99.90;;;;;;5014521;28;20633;-23
2021/12/04 15:06:26;;;;;;;5.50;2.77;;;8.90;99.90;;;;;;5014804;28;20213;-23
2021/12/04 15:09:04;;;;;;;6.40;3.10;;;9.00;99.90;;;;;;5007713;28;20204;-23
2021/12/04 15:11:36;;;;;;;7.17;3.03;;;8.90;99.90;;;;;;5013996;28;20592;-23
2021/12/04 15:14:08;;;;;;;8.30;3.70;;;8.90;99.90;;;;;;5013388;28;20228;-23
2021/12/04 15:16:48;;;;;;;7.10;3.47;;;8.90;99.90;;;;;;5012963;28;20227;-23
2021/12/04 15:19:29;;;;;;;6.37;3.00;;;8.90;99.90;;;;;;5013195;28;20960;-23
2021/12/04 15:22:00;;;;;;;10.03;2.93;;;8.90;99.90;;;;;;5010470;28;20205;-23
2021/12/04 15:24:32;;;;;;;6.83;3.07;;;8.90;99.90;;;;;;5013593;28;20225;-23
2021/12/04 15:27:06;;;;;;;4.67;2.43;;;8.90;99.90;;;;;;5011494;28;20201;-23
2021/12/04 15:29:35;;;;;;;5.73;2.40;;;8.90;99.90;;;;;;5026764;28;20213;-23
2021/12/04 15:32:08;;;;;;;5.13;2.27;;;8.90;99.90;;;;;;5010743;28;20217;-23
2021/12/04 15:34:50;;;;;;;7.53;2.50;;;8.90;99.90;;;;;;5012860;28;20211;-26
2021/12/04 15:37:37;;;;;;;5.73;2.33;;;8.90;99.90;;;;;;5016655;28;20233;-26
2021/12/04 15:40:11;;;;;;;7.97;2.40;;;8.90;99.90;;;;;;5012654;28;20201;-26
2021/12/04 15:43:01;;;;;;;8.90;2.50;;;8.90;99.90;;;;;;5020266;28;20208;-26
2021/12/04 15:45:42;;;;;;;6.93;2.10;;;8.80;99.90;;;;;;5017730;28;20224;-26
2021/12/04 15:53:17;;;;;;;7.30;2.37;;;8.70;99.90;;;;;;5019860;28;20565;-26
2021/12/04 15:55:51;;;;;;;9.37;2.40;;;8.70;99.90;;;;;;5034989;28;20253;-26
2021/12/04 15:58:21;;;;;;;9.30;2.73;;;8.60;99.90;;;;;;5025620;28;20303;-26
2021/12/04 16:01:09;;;;;;;7.20;2.30;;;8.60;99.90;;;;;;5019288;28;20201;-26
2021/12/04 16:03:40;;;;;;;11.63;2.83;;;8.60;99.90;;;;;;5019525;28;20205;-27
2021/12/04 16:06:11;;;;;;;7.10;2.43;;;8.50;99.90;;;;;;5023621;28;20292;-26
2021/12/04 16:08:43;;;;;;;10.90;2.60;;;8.50;99.90;;;;;;5020663;28;20220;-27
2021/12/04 16:11:14;;;;;;;8.00;2.60;;;8.50;99.90;;;;;;5021441;28;20240;-26
2021/12/04 16:13:52;;;;;;;8.10;3.17;;;8.40;99.90;;;;;;5012804;28;20211;-26
2021/12/04 16:16:24;;;;;;;8.47;2.87;;;8.40;99.90;;;;;;5019834;28;20228;-23
2021/12/04 16:18:54;;;;;;;9.87;3.23;;;8.40;99.90;;;;;;5026047;28;20200;-23
2021/12/04 16:21:23;;;;;;;8.50;3.20;;;8.40;99.90;;;;;;5011897;28;20664;-23
2021/12/04 16:23:53;;;;;;;11.20;3.67;;;8.30;99.90;;;;;;5015851;28;20655;-23
2021/12/04 16:26:25;;;;;;;9.90;3.10;;;8.30;99.90;;;;;;5025802;28;20340;-23
2021/12/04 16:36:44;;;;;;;9.30;3.07;;;8.30;99.90;;;;;;5024783;28;20243;-23
2021/12/04 16:39:13;;;;;;;10.00;3.23;;;8.30;99.90;;;;;;5021511;28;20234;-23
2021/12/04 16:41:50;;;;;;;10.23;2.60;;;8.30;99.90;;;;;;5018100;28;20216;-23
2021/12/04 16:44:17;;;;;;;8.93;2.47;;;8.30;99.90;;;;;;5017338;28;20303;-23
2021/12/04 16:46:48;;;;;;;8.90;2.73;;;8.20;99.90;;;;;;5012154;28;20581;-23
2021/12/04 16:49:16;;;;;;;7.53;2.80;;;8.20;99.90;;;;;;5021075;28;20636;-23